sensor_id;sensor_type;location;lat;lon;timestamp;P1;durP1;ratioP1;P2;durP2;ratioP2
4521;SDS011;2273;48.464;11.926;2023-07-31T00:00:59;7.43;;;3.00;;
4521;SDS011;2273;48.464;11.926;2023-07-31T00:03:25;5.87;;;2.70;;
4521;SDS011;2273;48.464;11.926;2023-07-31T00:05:50;14.70;;;2.87;;
4521;SDS011;2273;48.464;11.926;2023-07-31T00:08:16;4.57;;;3.07;;
4521;SDS011;2273;48.464;11.926;2023-07-31T00:10:41;6.47;;;3.50;;
4521;SDS011;2273;48.464;11.926;2023-07-31T00:13:06;6.73;;;2.60;;
4521;SDS011;2273;48.464;11.926;2023-07-31T00:15:32;7.67;;;2.80;;
4521;SDS011;2273;48.464;11.926;2023-07-31T00:17:57;5.53;;;2.80;;
4521;SDS011;2273;48.464;11.926;2023-07-31T00:20:23;7.00;;;2.83;;
4521;SDS011;2273;48.464;11.926;2023-07-31T00:22:48;4.23;;;2.63;;
4521;SDS011;2273;48.464;11.926;2023-07-31T00:25:13;5.57;;;2.47;;
4521;SDS011;2273;48.464;11.926;2023-07-31T00:27:39;7.80;;;4.03;;
4521;SDS011;2273;48.464;11.926;2023-07-31T00:30:05;4.33;;;2.87;;
4521;SDS011;2273;48.464;11.926;2023-07-31T00:32:32;7.13;;;2.80;;
4521;SDS011;2273;48.464;11.926;2023-07-31T00:34:58;20.33;;;3.50;;
4521;SDS011;2273;48.464;11.926;2023-07-31T00:37:24;3.57;;;2.30;;
4521;SDS011;2273;48.464;11.926;2023-07-31T00:39:49;9.40;;;3.00;;
4521;SDS011;2273;48.464;11.926;2023-07-31T00:42:15;5.90;;;2.63;;
4521;SDS011;2273;48.464;11.926;2023-07-31T00:44:40;4.40;;;2.50;;
4521;SDS011;2273;48.464;11.926;2023-07-31T00:47:05;5.53;;;2.60;;
4521;SDS011;2273;48.464;11.926;2023-07-31T00:49:31;6.33;;;3.57;;
4521;SDS011;2273;48.464;11.926;2023-07-31T00:51:56;6.17;;;2.83;;
4521;SDS011;2273;48.464;11.926;2023-07-31T00:54:24;5.60;;;3.00;;
4521;SDS011;2273;48.464;11.926;2023-07-31T00:56:49;6.00;;;2.93;;
4521;SDS011;2273;48.464;11.926;2023-07-31T00:59:16;6.33;;;2.90;;
4521;SDS011;2273;48.464;11.926;2023-07-31T01:04:11;5.60;;;3.13;;
4521;SDS011;2273;48.464;11.926;2023-07-31T01:06:48;4.10;;;2.60;;
4521;SDS011;2273;48.464;11.926;2023-07-31T01:11:57;4.00;;;3.20;;
4521;SDS011;2273;48.464;11.926;2023-07-31T01:14:26;4.20;;;2.40;;
4521;SDS011;2273;48.464;11.926;2023-07-31T01:16:52;12.80;;;3.50;;
4521;SDS011;2273;48.464;11.926;2023-07-31T01:19:18;10.87;;;3.10;;
4521;SDS011;2273;48.464;11.926;2023-07-31T01:27:17;4.87;;;2.60;;
4521;SDS011;2273;48.464;11.926;2023-07-31T01:29:48;8.30;;;3.13;;
4521;SDS011;2273;48.464;11.926;2023-07-31T01:32:15;3.87;;;2.83;;
4521;SDS011;2273;48.464;11.926;2023-07-31T01:34:43;7.43;;;3.30;;
4521;SDS011;2273;48.464;11.926;2023-07-31T01:37:09;6.07;;;3.07;;
4521;SDS011;2273;48.464;11.926;2023-07-31T01:39:34;5.87;;;3.47;;
4521;SDS011;2273;48.464;11.926;2023-07-31T01:42:00;8.20;;;3.30;;
4521;SDS011;2273;48.464;11.926;2023-07-31T01:44:25;7.27;;;3.10;;
4521;SDS011;2273;48.464;11.926;2023-07-31T01:46:51;9.90;;;2.83;;
4521;SDS011;2273;48.464;11.926;2023-07-31T01:49:16;7.83;;;2.97;;
4521;SDS011;2273;48.464;11.926;2023-07-31T01:51:42;5.47;;;3.00;;
4521;SDS011;2273;48.464;11.926;2023-07-31T01:54:07;9.50;;;4.50;;
4521;SDS011;2273;48.464;11.926;2023-07-31T01:56:33;6.60;;;3.60;;
4521;SDS011;2273;48.464;11.926;2023-07-31T01:58:58;5.63;;;3.37;;
4521;SDS011;2273;48.464;11.926;2023-07-31T02:01:23;4.90;;;3.07;;
4521;SDS011;2273;48.464;11.926;2023-07-31T02:03:49;4.23;;;3.03;;
4521;SDS011;2273;48.464;11.926;2023-07-31T02:06:15;8.50;;;3.10;;
4521;SDS011;2273;48.464;11.926;2023-07-31T02:08:40;5.53;;;3.27;;
4521;SDS011;2273;48.464;11.926;2023-07-31T02:11:06;3.67;;;2.90;;
4521;SDS011;2273;48.464;11.926;2023-07-31T02:13:31;7.50;;;3.67;;
4521;SDS011;2273;48.464;11.926;2023-07-31T02:15:57;4.20;;;3.37;;
4521;SDS011;2273;48.464;11.926;2023-07-31T02:18:24;8.63;;;3.70;;
4521;SDS011;2273;48.464;11.926;2023-07-31T02:20:50;5.33;;;3.17;;
4521;SDS011;2273;48.464;11.926;2023-07-31T02:23:16;8.10;;;3.00;;
4521;SDS011;2273;48.464;11.926;2023-07-31T02:25:43;9.40;;;3.10;;
4521;SDS011;2273;48.464;11.926;2023-07-31T02:28:08;4.13;;;3.30;;
4521;SDS011;2273;48.464;11.926;2023-07-31T02:30:34;5.63;;;2.83;;
4521;SDS011;2273;48.464;11.926;2023-07-31T02:33:00;6.10;;;3.20;;
4521;SDS011;2273;48.464;11.926;2023-07-31T02:35:25;7.70;;;3.27;;
4521;SDS011;2273;48.464;11.926;2023-07-31T02:37:50;6.90;;;3.37;;
4521;SDS011;2273;48.464;11.926;2023-07-31T02:40:16;6.63;;;3.20;;
4521;SDS011;2273;48.464;11.926;2023-07-31T02:42:42;8.10;;;3.30;;
4521;SDS011;2273;48.464;11.926;2023-07-31T02:45:07;6.70;;;3.40;;
4521;SDS011;2273;48.464;11.926;2023-07-31T02:47:34;7.07;;;3.43;;
4521;SDS011;2273;48.464;11.926;2023-07-31T02:50:01;4.77;;;3.47;;
4521;SDS011;2273;48.464;11.926;2023-07-31T02:52:30;8.80;;;4.10;;
4521;SDS011;2273;48.464;11.926;2023-07-31T02:54:55;7.40;;;3.57;;
4521;SDS011;2273;48.464;11.926;2023-07-31T02:57:20;5.60;;;3.77;;
4521;SDS011;2273;48.464;11.926;2023-07-31T02:59:46;10.30;;;3.40;;
4521;SDS011;2273;48.464;11.926;2023-07-31T03:02:11;6.73;;;3.33;;
4521;SDS011;2273;48.464;11.926;2023-07-31T03:04:38;4.03;;;3.10;;
4521;SDS011;2273;48.464;11.926;2023-07-31T03:07:03;5.73;;;3.53;;
4521;SDS011;2273;48.464;11.926;2023-07-31T03:09:29;5.90;;;3.33;;
4521;SDS011;2273;48.464;11.926;2023-07-31T03:11:54;4.30;;;2.83;;
4521;SDS011;2273;48.464;11.926;2023-07-31T03:14:20;5.47;;;3.23;;
4521;SDS011;2273;48.464;11.926;2023-07-31T03:16:45;6.40;;;3.23;;
4521;SDS011;2273;48.464;11.926;2023-07-31T03:19:10;6.23;;;3.53;;
4521;SDS011;2273;48.464;11.926;2023-07-31T03:21:36;6.80;;;3.77;;
4521;SDS011;2273;48.464;11.926;2023-07-31T03:24:01;7.80;;;3.57;;
4521;SDS011;2273;48.464;11.926;2023-07-31T03:26:27;11.17;;;3.13;;
4521;SDS011;2273;48.464;11.926;2023-07-31T03:28:52;7.80;;;3.53;;
4521;SDS011;2273;48.464;11.926;2023-07-31T03:31:18;7.17;;;4.17;;
4521;SDS011;2273;48.464;11.926;2023-07-31T03:33:43;9.37;;;3.60;;
4521;SDS011;2273;48.464;11.926;2023-07-31T03:36:09;4.13;;;3.03;;
4521;SDS011;2273;48.464;11.926;2023-07-31T03:38:34;5.83;;;4.10;;
4521;SDS011;2273;48.464;11.926;2023-07-31T03:41:00;8.03;;;3.13;;
4521;SDS011;2273;48.464;11.926;2023-07-31T03:43:25;7.23;;;3.30;;
4521;SDS011;2273;48.464;11.926;2023-07-31T03:45:51;5.97;;;3.50;;
4521;SDS011;2273;48.464;11.926;2023-07-31T03:48:16;11.77;;;4.87;;
4521;SDS011;2273;48.464;11.926;2023-07-31T03:50:42;7.97;;;3.30;;
4521;SDS011;2273;48.464;11.926;2023-07-31T03:53:07;6.40;;;3.30;;
4521;SDS011;2273;48.464;11.926;2023-07-31T03:55:33;6.67;;;3.60;;
4521;SDS011;2273;48.464;11.926;2023-07-31T03:57:58;5.17;;;3.67;;
4521;SDS011;2273;48.464;11.926;2023-07-31T04:00:25;8.70;;;4.00;;
4521;SDS011;2273;48.464;11.926;2023-07-31T04:02:52;6.50;;;3.37;;
4521;SDS011;2273;48.464;11.926;2023-07-31T04:05:17;6.17;;;4.03;;
4521;SDS011;2273;48.464;11.926;2023-07-31T04:07:43;5.73;;;3.40;;
4521;SDS011;2273;48.464;11.926;2023-07-31T04:10:08;8.07;;;4.23;;
4521;SDS011;2273;48.464;11.926;2023-07-31T04:12:34;4.93;;;3.47;;
4521;SDS011;2273;48.464;11.926;2023-07-31T04:14:59;8.37;;;4.00;;
4521;SDS011;2273;48.464;11.926;2023-07-31T04:17:25;6.10;;;4.20;;
4521;SDS011;2273;48.464;11.926;2023-07-31T04:19:50;12.73;;;3.60;;
4521;SDS011;2273;48.464;11.926;2023-07-31T04:22:16;7.77;;;3.60;;
4521;SDS011;2273;48.464;11.926;2023-07-31T04:24:41;6.40;;;3.90;;
4521;SDS011;2273;48.464;11.926;2023-07-31T04:27:06;6.43;;;3.77;;
4521;SDS011;2273;48.464;11.926;2023-07-31T04:29:32;7.87;;;3.50;;
4521;SDS011;2273;48.464;11.926;2023-07-31T04:31:57;4.77;;;3.37;;
4521;SDS011;2273;48.464;11.926;2023-07-31T04:34:22;6.03;;;4.33;;
4521;SDS011;2273;48.464;11.926;2023-07-31T04:36:48;10.53;;;3.70;;
4521;SDS011;2273;48.464;11.926;2023-07-31T04:39:13;8.63;;;3.93;;
4521;SDS011;2273;48.464;11.926;2023-07-31T04:41:39;4.63;;;3.53;;
4521;SDS011;2273;48.464;11.926;2023-07-31T04:44:04;10.50;;;4.20;;
4521;SDS011;2273;48.464;11.926;2023-07-31T04:46:29;8.70;;;3.83;;
4521;SDS011;2273;48.464;11.926;2023-07-31T04:48:55;14.47;;;3.80;;
4521;SDS011;2273;48.464;11.926;2023-07-31T04:51:21;7.00;;;4.07;;
4521;SDS011;2273;48.464;11.926;2023-07-31T04:53:48;6.30;;;4.10;;
4521;SDS011;2273;48.464;11.926;2023-07-31T04:56:13;7.90;;;3.50;;
4521;SDS011;2273;48.464;11.926;2023-07-31T04:58:40;7.47;;;3.17;;
4521;SDS011;2273;48.464;11.926;2023-07-31T05:01:06;9.13;;;3.73;;
4521;SDS011;2273;48.464;11.926;2023-07-31T05:03:31;5.50;;;3.10;;
4521;SDS011;2273;48.464;11.926;2023-07-31T05:05:56;6.93;;;3.80;;
4521;SDS011;2273;48.464;11.926;2023-07-31T05:08:22;12.83;;;3.93;;
4521;SDS011;2273;48.464;11.926;2023-07-31T05:10:47;8.17;;;4.17;;
4521;SDS011;2273;48.464;11.926;2023-07-31T05:13:13;8.60;;;4.50;;
4521;SDS011;2273;48.464;11.926;2023-07-31T05:15:39;7.83;;;4.40;;
4521;SDS011;2273;48.464;11.926;2023-07-31T05:18:06;10.03;;;5.23;;
4521;SDS011;2273;48.464;11.926;2023-07-31T05:20:31;6.10;;;4.03;;
4521;SDS011;2273;48.464;11.926;2023-07-31T05:22:56;5.10;;;3.90;;
4521;SDS011;2273;48.464;11.926;2023-07-31T05:25:22;10.13;;;4.63;;
4521;SDS011;2273;48.464;11.926;2023-07-31T05:27:47;8.23;;;4.20;;
4521;SDS011;2273;48.464;11.926;2023-07-31T05:30:13;8.10;;;4.10;;
4521;SDS011;2273;48.464;11.926;2023-07-31T05:32:41;8.30;;;4.73;;
4521;SDS011;2273;48.464;11.926;2023-07-31T05:35:06;7.53;;;4.40;;
4521;SDS011;2273;48.464;11.926;2023-07-31T05:37:32;5.77;;;3.90;;
4521;SDS011;2273;48.464;11.926;2023-07-31T05:39:57;6.80;;;4.30;;
4521;SDS011;2273;48.464;11.926;2023-07-31T05:42:23;9.80;;;4.57;;
4521;SDS011;2273;48.464;11.926;2023-07-31T05:44:48;8.80;;;4.63;;
4521;SDS011;2273;48.464;11.926;2023-07-31T05:47:14;13.70;;;4.07;;
4521;SDS011;2273;48.464;11.926;2023-07-31T05:49:39;5.63;;;3.83;;
4521;SDS011;2273;48.464;11.926;2023-07-31T05:52:05;6.37;;;4.23;;
4521;SDS011;2273;48.464;11.926;2023-07-31T05:54:31;8.20;;;3.70;;
4521;SDS011;2273;48.464;11.926;2023-07-31T05:56:57;5.37;;;3.70;;
4521;SDS011;2273;48.464;11.926;2023-07-31T05:59:22;9.70;;;4.30;;
4521;SDS011;2273;48.464;11.926;2023-07-31T06:01:48;6.33;;;4.00;;
4521;SDS011;2273;48.464;11.926;2023-07-31T06:04:13;10.53;;;4.10;;
4521;SDS011;2273;48.464;11.926;2023-07-31T06:06:38;8.97;;;4.60;;
4521;SDS011;2273;48.464;11.926;2023-07-31T06:09:04;7.90;;;3.97;;
4521;SDS011;2273;48.464;11.926;2023-07-31T06:11:29;7.87;;;4.47;;
4521;SDS011;2273;48.464;11.926;2023-07-31T06:13:55;10.17;;;4.47;;
4521;SDS011;2273;48.464;11.926;2023-07-31T06:16:20;6.60;;;4.30;;
4521;SDS011;2273;48.464;11.926;2023-07-31T06:18:46;6.30;;;4.30;;
4521;SDS011;2273;48.464;11.926;2023-07-31T06:21:12;5.40;;;3.53;;
4521;SDS011;2273;48.464;11.926;2023-07-31T06:23:37;7.00;;;4.17;;
4521;SDS011;2273;48.464;11.926;2023-07-31T06:26:03;16.20;;;4.33;;
4521;SDS011;2273;48.464;11.926;2023-07-31T06:28:28;6.03;;;3.83;;
4521;SDS011;2273;48.464;11.926;2023-07-31T06:30:55;6.80;;;3.50;;
4521;SDS011;2273;48.464;11.926;2023-07-31T06:33:20;8.30;;;4.13;;
4521;SDS011;2273;48.464;11.926;2023-07-31T06:35:46;6.10;;;3.60;;
4521;SDS011;2273;48.464;11.926;2023-07-31T06:38:11;8.50;;;3.67;;
4521;SDS011;2273;48.464;11.926;2023-07-31T06:40:37;4.83;;;3.40;;
4521;SDS011;2273;48.464;11.926;2023-07-31T06:43:02;8.47;;;3.30;;
4521;SDS011;2273;48.464;11.926;2023-07-31T06:45:33;9.20;;;3.50;;
4521;SDS011;2273;48.464;11.926;2023-07-31T06:48:00;7.50;;;3.40;;
4521;SDS011;2273;48.464;11.926;2023-07-31T06:50:27;7.13;;;3.90;;
4521;SDS011;2273;48.464;11.926;2023-07-31T06:52:55;4.67;;;3.37;;
4521;SDS011;2273;48.464;11.926;2023-07-31T06:55:21;8.93;;;3.60;;
4521;SDS011;2273;48.464;11.926;2023-07-31T06:57:48;7.20;;;3.30;;
4521;SDS011;2273;48.464;11.926;2023-07-31T07:00:17;6.00;;;3.13;;
4521;SDS011;2273;48.464;11.926;2023-07-31T07:02:44;8.87;;;3.90;;
4521;SDS011;2273;48.464;11.926;2023-07-31T07:05:12;6.97;;;3.10;;
4521;SDS011;2273;48.464;11.926;2023-07-31T07:07:37;7.37;;;2.90;;
4521;SDS011;2273;48.464;11.926;2023-07-31T07:10:03;6.27;;;3.23;;
4521;SDS011;2273;48.464;11.926;2023-07-31T07:12:30;6.50;;;3.90;;
4521;SDS011;2273;48.464;11.926;2023-07-31T07:14:56;6.23;;;3.20;;
4521;SDS011;2273;48.464;11.926;2023-07-31T07:17:25;4.23;;;2.83;;
4521;SDS011;2273;48.464;11.926;2023-07-31T07:19:51;5.73;;;3.03;;
4521;SDS011;2273;48.464;11.926;2023-07-31T07:22:16;7.00;;;3.10;;
4521;SDS011;2273;48.464;11.926;2023-07-31T07:24:42;6.87;;;3.47;;
4521;SDS011;2273;48.464;11.926;2023-07-31T07:27:07;4.50;;;2.87;;
4521;SDS011;2273;48.464;11.926;2023-07-31T07:29:37;6.40;;;3.20;;
4521;SDS011;2273;48.464;11.926;2023-07-31T07:32:03;6.20;;;2.93;;
4521;SDS011;2273;48.464;11.926;2023-07-31T07:34:28;3.83;;;2.80;;
4521;SDS011;2273;48.464;11.926;2023-07-31T07:36:54;6.13;;;2.30;;
4521;SDS011;2273;48.464;11.926;2023-07-31T07:39:20;5.90;;;3.13;;
4521;SDS011;2273;48.464;11.926;2023-07-31T07:41:45;5.30;;;2.70;;
4521;SDS011;2273;48.464;11.926;2023-07-31T07:44:11;2.90;;;2.00;;
4521;SDS011;2273;48.464;11.926;2023-07-31T07:46:37;6.53;;;2.63;;
4521;SDS011;2273;48.464;11.926;2023-07-31T07:49:03;6.20;;;2.87;;
4521;SDS011;2273;48.464;11.926;2023-07-31T07:51:28;4.47;;;3.00;;
4521;SDS011;2273;48.464;11.926;2023-07-31T07:53:55;7.53;;;3.43;;
4521;SDS011;2273;48.464;11.926;2023-07-31T07:56:21;6.57;;;2.87;;
4521;SDS011;2273;48.464;11.926;2023-07-31T07:58:49;6.40;;;2.60;;
4521;SDS011;2273;48.464;11.926;2023-07-31T08:01:15;14.63;;;3.00;;
4521;SDS011;2273;48.464;11.926;2023-07-31T08:03:40;9.33;;;3.97;;
4521;SDS011;2273;48.464;11.926;2023-07-31T08:06:06;8.40;;;3.60;;
4521;SDS011;2273;48.464;11.926;2023-07-31T08:08:34;4.93;;;2.60;;
4521;SDS011;2273;48.464;11.926;2023-07-31T08:10:59;4.33;;;2.93;;
4521;SDS011;2273;48.464;11.926;2023-07-31T08:13:25;12.43;;;3.20;;
4521;SDS011;2273;48.464;11.926;2023-07-31T08:15:50;6.10;;;3.23;;
4521;SDS011;2273;48.464;11.926;2023-07-31T08:18:15;4.77;;;2.77;;
4521;SDS011;2273;48.464;11.926;2023-07-31T08:20:42;8.73;;;2.67;;
4521;SDS011;2273;48.464;11.926;2023-07-31T08:23:07;6.87;;;3.00;;
4521;SDS011;2273;48.464;11.926;2023-07-31T08:25:36;5.87;;;2.57;;
4521;SDS011;2273;48.464;11.926;2023-07-31T08:28:02;7.10;;;2.87;;
4521;SDS011;2273;48.464;11.926;2023-07-31T08:30:28;5.10;;;2.53;;
4521;SDS011;2273;48.464;11.926;2023-07-31T08:32:53;5.33;;;2.60;;
4521;SDS011;2273;48.464;11.926;2023-07-31T08:35:19;6.00;;;2.37;;
4521;SDS011;2273;48.464;11.926;2023-07-31T08:37:44;6.77;;;2.47;;
4521;SDS011;2273;48.464;11.926;2023-07-31T08:40:10;4.40;;;2.47;;
4521;SDS011;2273;48.464;11.926;2023-07-31T08:42:45;5.70;;;2.50;;
4521;SDS011;2273;48.464;11.926;2023-07-31T08:45:15;4.07;;;2.27;;
4521;SDS011;2273;48.464;11.926;2023-07-31T08:47:45;10.97;;;2.60;;
4521;SDS011;2273;48.464;11.926;2023-07-31T08:50:12;5.83;;;2.10;;
4521;SDS011;2273;48.464;11.926;2023-07-31T08:52:39;5.40;;;2.77;;
4521;SDS011;2273;48.464;11.926;2023-07-31T08:55:05;4.00;;;2.40;;
4521;SDS011;2273;48.464;11.926;2023-07-31T08:57:31;5.33;;;2.07;;
4521;SDS011;2273;48.464;11.926;2023-07-31T08:59:57;2.90;;;2.20;;
4521;SDS011;2273;48.464;11.926;2023-07-31T09:02:22;4.20;;;1.90;;
4521;SDS011;2273;48.464;11.926;2023-07-31T09:04:50;3.83;;;2.20;;
4521;SDS011;2273;48.464;11.926;2023-07-31T09:07:15;4.07;;;2.20;;
4521;SDS011;2273;48.464;11.926;2023-07-31T09:09:41;3.60;;;1.90;;
4521;SDS011;2273;48.464;11.926;2023-07-31T09:12:07;5.50;;;2.07;;
4521;SDS011;2273;48.464;11.926;2023-07-31T09:14:32;3.30;;;2.00;;
4521;SDS011;2273;48.464;11.926;2023-07-31T09:16:58;5.30;;;2.57;;
4521;SDS011;2273;48.464;11.926;2023-07-31T09:19:34;4.37;;;2.07;;
4521;SDS011;2273;48.464;11.926;2023-07-31T09:22:03;3.17;;;2.30;;
4521;SDS011;2273;48.464;11.926;2023-07-31T09:24:32;2.90;;;1.97;;
4521;SDS011;2273;48.464;11.926;2023-07-31T09:26:59;4.17;;;2.47;;
4521;SDS011;2273;48.464;11.926;2023-07-31T09:29:26;8.47;;;2.30;;
4521;SDS011;2273;48.464;11.926;2023-07-31T09:31:53;6.63;;;2.13;;
4521;SDS011;2273;48.464;11.926;2023-07-31T09:34:19;3.37;;;1.90;;
4521;SDS011;2273;48.464;11.926;2023-07-31T09:36:47;4.13;;;2.67;;
4521;SDS011;2273;48.464;11.926;2023-07-31T09:39:15;5.70;;;2.20;;
4521;SDS011;2273;48.464;11.926;2023-07-31T09:41:46;7.93;;;2.80;;
4521;SDS011;2273;48.464;11.926;2023-07-31T09:44:13;4.27;;;2.10;;
4521;SDS011;2273;48.464;11.926;2023-07-31T09:46:38;3.73;;;2.20;;
4521;SDS011;2273;48.464;11.926;2023-07-31T09:51:31;2.77;;;1.90;;
4521;SDS011;2273;48.464;11.926;2023-07-31T09:53:56;5.10;;;2.07;;
4521;SDS011;2273;48.464;11.926;2023-07-31T09:56:21;5.30;;;2.30;;
4521;SDS011;2273;48.464;11.926;2023-07-31T09:58:48;3.43;;;1.90;;
4521;SDS011;2273;48.464;11.926;2023-07-31T10:01:14;7.00;;;2.70;;
4521;SDS011;2273;48.464;11.926;2023-07-31T10:03:39;5.17;;;2.27;;
4521;SDS011;2273;48.464;11.926;2023-07-31T10:06:05;7.37;;;2.07;;
4521;SDS011;2273;48.464;11.926;2023-07-31T10:08:33;5.37;;;2.40;;
4521;SDS011;2273;48.464;11.926;2023-07-31T10:11:01;4.80;;;2.60;;
4521;SDS011;2273;48.464;11.926;2023-07-31T10:13:27;7.27;;;2.73;;
4521;SDS011;2273;48.464;11.926;2023-07-31T10:15:54;3.90;;;2.27;;
4521;SDS011;2273;48.464;11.926;2023-07-31T10:18:24;2.97;;;2.10;;
4521;SDS011;2273;48.464;11.926;2023-07-31T10:20:49;6.27;;;2.40;;
4521;SDS011;2273;48.464;11.926;2023-07-31T10:23:15;4.63;;;2.17;;
4521;SDS011;2273;48.464;11.926;2023-07-31T10:25:41;7.40;;;2.50;;
4521;SDS011;2273;48.464;11.926;2023-07-31T10:28:07;4.80;;;2.20;;
4521;SDS011;2273;48.464;11.926;2023-07-31T10:30:33;9.60;;;3.73;;
4521;SDS011;2273;48.464;11.926;2023-07-31T10:33:00;5.90;;;2.00;;
4521;SDS011;2273;48.464;11.926;2023-07-31T10:35:25;5.20;;;2.37;;
4521;SDS011;2273;48.464;11.926;2023-07-31T10:37:52;6.13;;;2.20;;
4521;SDS011;2273;48.464;11.926;2023-07-31T10:40:23;5.83;;;2.60;;
4521;SDS011;2273;48.464;11.926;2023-07-31T10:42:53;5.60;;;2.10;;
4521;SDS011;2273;48.464;11.926;2023-07-31T10:48:05;4.10;;;2.00;;
4521;SDS011;2273;48.464;11.926;2023-07-31T10:50:32;5.30;;;2.13;;
4521;SDS011;2273;48.464;11.926;2023-07-31T10:53:01;3.43;;;2.13;;
4521;SDS011;2273;48.464;11.926;2023-07-31T10:55:32;5.30;;;1.80;;
4521;SDS011;2273;48.464;11.926;2023-07-31T11:00:32;8.57;;;3.13;;
4521;SDS011;2273;48.464;11.926;2023-07-31T11:08:12;3.90;;;2.23;;
4521;SDS011;2273;48.464;11.926;2023-07-31T11:10:48;4.83;;;2.50;;
4521;SDS011;2273;48.464;11.926;2023-07-31T11:13:15;4.03;;;2.00;;
4521;SDS011;2273;48.464;11.926;2023-07-31T11:15:41;8.17;;;2.67;;
4521;SDS011;2273;48.464;11.926;2023-07-31T11:18:06;3.03;;;2.13;;
4521;SDS011;2273;48.464;11.926;2023-07-31T11:20:33;4.83;;;2.23;;
4521;SDS011;2273;48.464;11.926;2023-07-31T11:23:03;6.13;;;2.40;;
4521;SDS011;2273;48.464;11.926;2023-07-31T11:25:31;6.23;;;2.60;;
4521;SDS011;2273;48.464;11.926;2023-07-31T11:27:57;5.50;;;2.77;;
4521;SDS011;2273;48.464;11.926;2023-07-31T11:30:27;7.57;;;2.60;;
4521;SDS011;2273;48.464;11.926;2023-07-31T11:32:54;2.60;;;1.77;;
4521;SDS011;2273;48.464;11.926;2023-07-31T11:35:20;4.60;;;1.97;;
4521;SDS011;2273;48.464;11.926;2023-07-31T11:37:45;2.97;;;2.03;;
4521;SDS011;2273;48.464;11.926;2023-07-31T11:40:11;5.23;;;2.20;;
4521;SDS011;2273;48.464;11.926;2023-07-31T11:42:36;5.67;;;2.00;;
4521;SDS011;2273;48.464;11.926;2023-07-31T11:45:02;5.43;;;2.40;;
4521;SDS011;2273;48.464;11.926;2023-07-31T11:47:34;3.40;;;2.17;;
4521;SDS011;2273;48.464;11.926;2023-07-31T11:50:01;6.43;;;2.30;;
4521;SDS011;2273;48.464;11.926;2023-07-31T11:52:34;6.57;;;2.23;;
4521;SDS011;2273;48.464;11.926;2023-07-31T11:55:06;11.03;;;2.30;;
4521;SDS011;2273;48.464;11.926;2023-07-31T11:57:34;4.07;;;1.97;;
4521;SDS011;2273;48.464;11.926;2023-07-31T12:00:00;3.43;;;2.10;;
4521;SDS011;2273;48.464;11.926;2023-07-31T12:02:26;4.70;;;2.17;;
4521;SDS011;2273;48.464;11.926;2023-07-31T12:04:51;6.53;;;2.50;;
4521;SDS011;2273;48.464;11.926;2023-07-31T12:07:17;6.33;;;2.37;;
4521;SDS011;2273;48.464;11.926;2023-07-31T12:09:55;5.07;;;2.20;;
4521;SDS011;2273;48.464;11.926;2023-07-31T12:12:21;5.07;;;1.97;;
4521;SDS011;2273;48.464;11.926;2023-07-31T12:14:47;7.47;;;2.20;;
4521;SDS011;2273;48.464;11.926;2023-07-31T12:17:13;16.33;;;2.30;;
4521;SDS011;2273;48.464;11.926;2023-07-31T12:19:39;4.63;;;1.90;;
4521;SDS011;2273;48.464;11.926;2023-07-31T12:22:11;2.87;;;2.00;;
4521;SDS011;2273;48.464;11.926;2023-07-31T12:24:38;10.03;;;2.70;;
4521;SDS011;2273;48.464;11.926;2023-07-31T12:27:14;3.97;;;2.73;;
4521;SDS011;2273;48.464;11.926;2023-07-31T12:29:43;3.20;;;1.97;;
4521;SDS011;2273;48.464;11.926;2023-07-31T12:32:19;3.70;;;2.13;;
4521;SDS011;2273;48.464;11.926;2023-07-31T12:34:50;4.47;;;2.13;;
4521;SDS011;2273;48.464;11.926;2023-07-31T12:37:15;7.60;;;2.43;;
4521;SDS011;2273;48.464;11.926;2023-07-31T12:39:41;10.70;;;2.20;;
4521;SDS011;2273;48.464;11.926;2023-07-31T12:42:06;4.20;;;2.63;;
4521;SDS011;2273;48.464;11.926;2023-07-31T12:44:31;5.10;;;2.13;;
4521;SDS011;2273;48.464;11.926;2023-07-31T12:46:57;2.67;;;1.80;;
4521;SDS011;2273;48.464;11.926;2023-07-31T12:49:22;2.90;;;1.77;;
4521;SDS011;2273;48.464;11.926;2023-07-31T12:51:48;4.03;;;2.00;;
4521;SDS011;2273;48.464;11.926;2023-07-31T12:54:13;5.80;;;2.10;;
4521;SDS011;2273;48.464;11.926;2023-07-31T12:56:39;5.07;;;1.90;;
4521;SDS011;2273;48.464;11.926;2023-07-31T12:59:05;7.50;;;2.03;;
4521;SDS011;2273;48.464;11.926;2023-07-31T13:01:31;8.53;;;2.10;;
4521;SDS011;2273;48.464;11.926;2023-07-31T13:03:56;4.80;;;1.80;;
4521;SDS011;2273;48.464;11.926;2023-07-31T13:06:22;6.00;;;1.90;;
4521;SDS011;2273;48.464;11.926;2023-07-31T13:08:47;5.97;;;2.17;;
4521;SDS011;2273;48.464;11.926;2023-07-31T13:11:13;4.07;;;2.00;;
4521;SDS011;2273;48.464;11.926;2023-07-31T13:13:38;3.60;;;2.10;;
4521;SDS011;2273;48.464;11.926;2023-07-31T13:16:04;6.50;;;2.23;;
4521;SDS011;2273;48.464;11.926;2023-07-31T13:18:29;3.93;;;2.03;;
4521;SDS011;2273;48.464;11.926;2023-07-31T13:20:54;3.30;;;1.80;;
4521;SDS011;2273;48.464;11.926;2023-07-31T13:23:20;5.83;;;2.20;;
4521;SDS011;2273;48.464;11.926;2023-07-31T13:25:45;4.60;;;2.00;;
4521;SDS011;2273;48.464;11.926;2023-07-31T13:28:11;6.53;;;2.10;;
4521;SDS011;2273;48.464;11.926;2023-07-31T13:30:36;3.07;;;1.80;;
4521;SDS011;2273;48.464;11.926;2023-07-31T13:33:01;3.33;;;1.90;;
4521;SDS011;2273;48.464;11.926;2023-07-31T13:35:27;4.33;;;2.10;;
4521;SDS011;2273;48.464;11.926;2023-07-31T13:37:56;2.60;;;1.53;;
4521;SDS011;2273;48.464;11.926;2023-07-31T13:40:22;3.80;;;1.80;;
4521;SDS011;2273;48.464;11.926;2023-07-31T13:42:47;4.63;;;2.20;;
4521;SDS011;2273;48.464;11.926;2023-07-31T13:45:13;3.07;;;1.73;;
4521;SDS011;2273;48.464;11.926;2023-07-31T13:47:39;6.10;;;1.93;;
4521;SDS011;2273;48.464;11.926;2023-07-31T13:50:04;4.83;;;2.30;;
4521;SDS011;2273;48.464;11.926;2023-07-31T13:52:30;3.53;;;1.73;;
4521;SDS011;2273;48.464;11.926;2023-07-31T13:54:55;3.00;;;1.83;;
4521;SDS011;2273;48.464;11.926;2023-07-31T13:57:20;2.40;;;1.70;;
4521;SDS011;2273;48.464;11.926;2023-07-31T13:59:46;2.73;;;1.70;;
4521;SDS011;2273;48.464;11.926;2023-07-31T14:02:11;3.80;;;2.03;;
4521;SDS011;2273;48.464;11.926;2023-07-31T14:04:37;8.00;;;2.00;;
4521;SDS011;2273;48.464;11.926;2023-07-31T14:07:02;3.70;;;2.20;;
4521;SDS011;2273;48.464;11.926;2023-07-31T14:09:29;4.20;;;1.70;;
4521;SDS011;2273;48.464;11.926;2023-07-31T14:11:54;3.57;;;2.03;;
4521;SDS011;2273;48.464;11.926;2023-07-31T14:14:20;3.53;;;1.93;;
4521;SDS011;2273;48.464;11.926;2023-07-31T14:16:46;5.70;;;2.20;;
4521;SDS011;2273;48.464;11.926;2023-07-31T14:19:11;6.10;;;1.83;;
4521;SDS011;2273;48.464;11.926;2023-07-31T14:21:37;4.37;;;2.40;;
4521;SDS011;2273;48.464;11.926;2023-07-31T14:24:02;4.50;;;1.90;;
4521;SDS011;2273;48.464;11.926;2023-07-31T14:26:28;2.60;;;1.83;;
4521;SDS011;2273;48.464;11.926;2023-07-31T14:28:53;4.23;;;1.90;;
4521;SDS011;2273;48.464;11.926;2023-07-31T14:31:19;5.73;;;2.07;;
4521;SDS011;2273;48.464;11.926;2023-07-31T14:33:44;4.07;;;2.10;;
4521;SDS011;2273;48.464;11.926;2023-07-31T14:36:09;4.00;;;2.20;;
4521;SDS011;2273;48.464;11.926;2023-07-31T14:38:35;3.50;;;2.30;;
4521;SDS011;2273;48.464;11.926;2023-07-31T14:41:00;5.40;;;1.90;;
4521;SDS011;2273;48.464;11.926;2023-07-31T14:43:26;2.90;;;1.73;;
4521;SDS011;2273;48.464;11.926;2023-07-31T14:45:51;4.13;;;1.70;;
4521;SDS011;2273;48.464;11.926;2023-07-31T14:48:18;11.60;;;2.03;;
4521;SDS011;2273;48.464;11.926;2023-07-31T14:50:43;3.43;;;2.13;;
4521;SDS011;2273;48.464;11.926;2023-07-31T14:53:09;6.53;;;2.40;;
4521;SDS011;2273;48.464;11.926;2023-07-31T14:55:34;6.53;;;2.20;;
4521;SDS011;2273;48.464;11.926;2023-07-31T14:58:00;4.73;;;2.13;;
4521;SDS011;2273;48.464;11.926;2023-07-31T15:00:25;6.30;;;2.67;;
4521;SDS011;2273;48.464;11.926;2023-07-31T15:02:51;3.93;;;2.30;;
4521;SDS011;2273;48.464;11.926;2023-07-31T15:05:17;4.20;;;2.10;;
4521;SDS011;2273;48.464;11.926;2023-07-31T15:07:42;3.20;;;1.97;;
4521;SDS011;2273;48.464;11.926;2023-07-31T15:10:08;5.73;;;2.20;;
4521;SDS011;2273;48.464;11.926;2023-07-31T15:12:33;3.00;;;1.83;;
4521;SDS011;2273;48.464;11.926;2023-07-31T15:14:59;4.70;;;2.30;;
4521;SDS011;2273;48.464;11.926;2023-07-31T15:17:24;4.40;;;2.27;;